Time;durP1;ratioP1;P1;durP2;ratioP2;P2;SDS_P1;SDS_P2;PMS_P1;PMS_P2;Temp;Humidity;BMP_temperature;BMP_pressure;BME280_temperature;BME280_humidity;BME280_pressure;Samples;Min_cycle;Max_cycle;Signal;HPM_P1;HPM_P2
2021/11/13 00:02:03;;;;;;;30.00;23.23;;;3.40;99.90;;;;;;4994227;28;20030;-77
2021/11/13 00:04:29;;;;;;;26.67;21.60;;;3.20;99.90;;;;;;5011846;28;20042;-76
2021/11/13 00:06:54;;;;;;;29.42;22.92;;;3.30;99.90;;;;;;5009894;28;20019;-75
2021/11/13 00:09:20;;;;;;;28.10;23.15;;;3.20;99.90;;;;;;4992618;28;20381;-74
2021/11/13 00:11:46;;;;;;;27.25;22.70;;;3.20;99.90;;;;;;4992599;28;20077;-76
2021/11/13 00:14:17;;;;;;;26.13;20.92;;;3.30;99.90;;;;;;4990718;28;20085;-76
2021/11/13 00:16:43;;;;;;;26.67;22.42;;;3.20;99.90;;;;;;4993770;28;20026;-75
2021/11/13 00:19:09;;;;;;;29.35;22.85;;;3.20;99.90;;;;;;4989844;28;20125;-76
2021/11/13 00:21:34;;;;;;;32.78;23.55;;;2.90;99.90;;;;;;5007078;28;20166;-75
2021/11/13 00:24:00;;;;;;;36.78;28.13;;;2.80;99.90;;;;;;4992691;28;20050;-75
2021/11/13 00:26:25;;;;;;;33.13;25.67;;;2.90;99.90;;;;;;4990025;28;20030;-76
2021/11/13 00:28:51;;;;;;;29.42;24.33;;;2.90;99.90;;;;;;4992211;28;20042;-76
2021/11/13 00:31:17;;;;;;;34.63;25.10;;;2.80;99.90;;;;;;5001371;28;20038;-76
2021/11/13 00:33:42;;;;;;;36.85;27.67;;;2.70;99.90;;;;;;4991933;28;20034;-77
2021/11/13 00:36:08;;;;;;;34.28;27.42;;;2.70;99.90;;;;;;5006574;28;20073;-75
2021/11/13 00:38:34;;;;;;;35.90;26.80;;;2.80;99.90;;;;;;4994516;28;20030;-76
2021/11/13 00:40:59;;;;;;;36.13;26.88;;;2.90;99.90;;;;;;5012832;28;20038;-75
2021/11/13 00:43:27;;;;;;;34.45;26.35;;;3.10;99.90;;;;;;5002343;28;20023;-76
2021/11/13 00:45:53;;;;;;;38.47;27.02;;;3.20;99.90;;;;;;4991421;28;20047;-77
2021/11/13 00:48:18;;;;;;;36.00;26.40;;;3.20;99.90;;;;;;4988775;28;20406;-76
2021/11/13 00:50:44;;;;;;;45.38;30.30;;;3.00;99.90;;;;;;4993747;28;20022;-76
2021/11/13 00:53:10;;;;;;;37.78;26.35;;;3.20;99.90;;;;;;5008130;28;20026;-75
2021/11/13 00:55:36;;;;;;;37.08;28.38;;;3.30;99.90;;;;;;4993597;28;20022;-77
2021/11/13 00:58:02;;;;;;;36.00;26.05;;;3.40;99.90;;;;;;4993915;28;20049;-76
2021/11/13 01:00:28;;;;;;;49.03;26.73;;;3.50;99.90;;;;;;4984614;28;20094;-77
2021/11/13 01:02:54;;;;;;;38.35;28.88;;;3.40;99.90;;;;;;4996203;28;20076;-76
2021/11/13 01:05:20;;;;;;;34.45;25.73;;;3.40;99.90;;;;;;4992346;28;20101;-77
2021/11/13 01:07:46;;;;;;;35.97;26.38;;;3.40;99.90;;;;;;4991227;28;20033;-76
2021/11/13 01:10:16;;;;;;;35.00;26.42;;;3.40;99.90;;;;;;4991217;28;20059;-78
2021/11/13 01:12:42;;;;;;;32.25;24.73;;;3.30;99.90;;;;;;4987551;28;20061;-76
2021/11/13 01:15:11;;;;;;;34.78;25.55;;;3.10;99.90;;;;;;4991214;28;20067;-76
2021/11/13 01:17:38;;;;;;;37.33;26.58;;;3.00;99.90;;;;;;4995010;28;20026;-78
2021/11/13 01:20:07;;;;;;;35.38;25.60;;;3.00;99.90;;;;;;4991753;28;20070;-76
2021/11/13 01:22:32;;;;;;;35.95;25.55;;;2.80;99.90;;;;;;4984543;28;20022;-77
2021/11/13 01:24:58;;;;;;;42.13;28.67;;;2.70;99.90;;;;;;4984752;28;20033;-76
2021/11/13 01:27:24;;;;;;;42.15;28.23;;;2.80;99.90;;;;;;4990435;28;20082;-78
2021/11/13 01:29:49;;;;;;;42.00;29.38;;;2.70;99.90;;;;;;4991491;28;20061;-76
2021/11/13 01:32:16;;;;;;;42.78;29.40;;;2.80;99.90;;;;;;4994114;28;20509;-75
2021/11/13 01:34:42;;;;;;;46.13;30.80;;;2.90;99.90;;;;;;5007362;28;20027;-76
2021/11/13 01:37:08;;;;;;;44.67;29.15;;;2.80;99.90;;;;;;4991840;28;20041;-77
2021/11/13 01:39:36;;;;;;;49.50;29.33;;;2.70;99.90;;;;;;4991983;28;20037;-76
2021/11/13 01:42:03;;;;;;;45.90;27.63;;;2.80;99.90;;;;;;4991614;28;20497;-76
2021/11/13 01:44:28;;;;;;;39.90;26.73;;;2.70;99.90;;;;;;4988704;28;20109;-76
2021/11/13 01:46:54;;;;;;;41.58;24.85;;;2.70;99.90;;;;;;4992145;28;20113;-77
2021/11/13 01:49:19;;;;;;;38.55;25.45;;;2.60;99.90;;;;;;4991954;28;20026;-76
2021/11/13 01:51:47;;;;;;;39.47;25.38;;;2.60;99.90;;;;;;4991150;28;20559;-76
2021/11/13 01:54:13;;;;;;;44.40;25.73;;;2.50;99.90;;;;;;4985398;28;20093;-76
2021/11/13 01:56:39;;;;;;;43.85;28.20;;;2.50;99.90;;;;;;4992340;28;20030;-75
2021/11/13 01:59:07;;;;;;;46.15;25.90;;;2.60;99.90;;;;;;4994605;28;20502;-76
2021/11/13 02:01:33;;;;;;;47.92;25.48;;;2.60;99.90;;;;;;4995707;28;20076;-75
2021/11/13 02:03:59;;;;;;;44.83;25.75;;;2.50;99.90;;;;;;4992965;28;20023;-76
2021/11/13 02:06:26;;;;;;;50.95;27.15;;;2.50;99.90;;;;;;4986840;28;20033;-77
2021/11/13 02:08:53;;;;;;;44.53;26.17;;;2.50;99.90;;;;;;4988950;28;20394;-77
2021/11/13 02:11:22;;;;;;;61.55;27.38;;;2.60;99.90;;;;;;4989551;28;20031;-76
2021/11/13 02:13:48;;;;;;;45.92;26.88;;;2.50;99.90;;;;;;4999102;28;20045;-75
2021/11/13 02:16:14;;;;;;;38.25;24.98;;;2.50;99.90;;;;;;4998159;28;20057;-75
2021/11/13 02:18:41;;;;;;;38.22;25.10;;;2.50;99.90;;;;;;4997438;28;20026;-77
2021/11/13 02:21:07;;;;;;;50.85;24.27;;;2.50;99.90;;;;;;4990966;28;20023;-76
2021/11/13 02:23:33;;;;;;;49.40;26.75;;;2.50;99.90;;;;;;4992040;28;20069;-75
2021/11/13 02:25:59;;;;;;;46.13;25.73;;;2.50;99.90;;;;;;4993115;28;20022;-76
2021/11/13 02:28:27;;;;;;;43.33;24.55;;;2.50;99.90;;;;;;4986242;28;20023;-75
2021/11/13 02:30:55;;;;;;;40.97;24.63;;;2.50;99.90;;;;;;4990971;28;20037;-76
2021/11/13 02:33:21;;;;;;;42.10;25.35;;;2.50;99.90;;;;;;4991519;28;20034;-77
2021/11/13 02:35:49;;;;;;;39.72;24.83;;;2.60;99.90;;;;;;4986006;28;20022;-76
2021/11/13 02:38:19;;;;;;;37.08;25.60;;;2.50;99.90;;;;;;4992300;28;20153;-76
2021/11/13 02:40:49;;;;;;;36.90;24.50;;;2.50;99.90;;;;;;4994154;28;20041;-76
2021/11/13 02:43:15;;;;;;;47.60;25.35;;;2.50;99.90;;;;;;5005844;28;20034;-75
2021/11/13 02:45:42;;;;;;;40.20;26.45;;;2.50;99.90;;;;;;5002031;28;20080;-76
2021/11/13 02:48:09;;;;;;;46.53;27.27;;;2.50;99.90;;;;;;4993880;28;20446;-75
2021/11/13 02:50:36;;;;;;;55.20;26.20;;;2.50;99.90;;;;;;4994508;28;20097;-77
2021/11/13 02:53:03;;;;;;;54.50;27.92;;;2.50;99.90;;;;;;4993903;28;20054;-76
2021/11/13 02:55:29;;;;;;;48.13;30.50;;;2.50;99.90;;;;;;4994344;28;20041;-76
2021/11/13 02:57:57;;;;;;;52.05;29.60;;;2.60;99.90;;;;;;4982038;28;20026;-76
2021/11/13 03:00:27;;;;;;;43.05;25.92;;;2.60;99.90;;;;;;4989387;28;20023;-75
2021/11/13 03:02:53;;;;;;;40.47;26.90;;;2.70;99.90;;;;;;4993158;28;20114;-76
2021/11/13 03:05:30;;;;;;;42.03;26.80;;;2.60;99.90;;;;;;4990621;28;20107;-76
2021/11/13 03:07:59;;;;;;;39.80;25.90;;;2.70;99.90;;;;;;4993659;28;20379;-76
2021/11/13 03:10:27;;;;;;;40.75;22.92;;;2.70;99.90;;;;;;4989341;28;20105;-77
2021/11/13 03:12:53;;;;;;;45.45;26.70;;;2.80;99.90;;;;;;5010830;28;20053;-76
2021/11/13 03:15:22;;;;;;;52.90;26.58;;;2.80;99.90;;;;;;4997271;28;20107;-76
2021/11/13 03:17:48;;;;;;;52.42;25.13;;;2.70;99.90;;;;;;4996461;28;20030;-77
2021/11/13 03:20:18;;;;;;;38.55;25.77;;;2.70;99.90;;;;;;4998997;28;20146;-75
2021/11/13 03:22:44;;;;;;;33.53;25.33;;;2.70;99.90;;;;;;4990536;28;20034;-75
2021/11/13 03:25:22;;;;;;;38.28;25.52;;;2.70;99.90;;;;;;4994751;28;20102;-76
2021/11/13 03:27:50;;;;;;;39.90;26.77;;;2.80;99.90;;;;;;4990015;28;20022;-77
2021/11/13 03:30:17;;;;;;;33.20;25.00;;;2.80;99.90;;;;;;5001325;28;20030;-76
2021/11/13 03:32:43;;;;;;;39.63;25.10;;;2.70;99.90;;;;;;5016379;28;20015;-74
2021/11/13 03:35:12;;;;;;;38.72;23.25;;;2.80;99.90;;;;;;5013582;28;20022;-75
2021/11/13 03:37:38;;;;;;;36.88;24.38;;;2.70;99.90;;;;;;5029616;28;20016;-75
2021/11/13 03:40:04;;;;;;;33.90;23.45;;;2.60;99.90;;;;;;5001106;28;20042;-75
2021/11/13 03:42:31;;;;;;;37.88;24.75;;;2.60;99.90;;;;;;5001763;28;20033;-75
2021/11/13 03:44:58;;;;;;;40.33;24.25;;;2.60;99.90;;;;;;4996536;28;20030;-76
2021/11/13 03:47:24;;;;;;;35.53;23.90;;;2.70;99.90;;;;;;4987923;28;20122;-76
2021/11/13 03:49:50;;;;;;;35.13;24.63;;;2.70;99.90;;;;;;4988845;28;20027;-76
2021/11/13 03:52:15;;;;;;;37.85;25.70;;;2.70;99.90;;;;;;5007533;28;20071;-75
2021/11/13 03:54:41;;;;;;;36.17;24.98;;;2.70;99.90;;;;;;4992935;28;20405;-75
2021/11/13 03:57:07;;;;;;;37.08;23.73;;;2.80;99.90;;;;;;4995635;28;20042;-75
2021/11/13 03:59:32;;;;;;;33.75;22.98;;;2.80;99.90;;;;;;4996181;28;20037;-76
2021/11/13 04:01:59;;;;;;;32.63;22.38;;;2.80;99.90;;;;;;4995343;28;20030;-76
2021/11/13 04:04:25;;;;;;;32.03;24.20;;;2.80;99.90;;;;;;4995448;28;20068;-76
2021/11/13 04:06:51;;;;;;;31.05;22.90;;;2.80;99.90;;;;;;4998988;28;20483;-77
2021/11/13 04:09:16;;;;;;;31.80;23.65;;;2.80;99.90;;;;;;5017386;28;20041;-75
2021/11/13 04:11:42;;;;;;;29.20;21.92;;;2.90;99.90;;;;;;5012884;28;20030;-76
2021/11/13 04:14:08;;;;;;;26.67;20.42;;;2.90;99.90;;;;;;5009269;28;20064;-75
2021/11/13 04:16:33;;;;;;;20.23;17.98;;;2.90;99.90;;;;;;5012847;28;20065;-74
2021/11/13 04:18:59;;;;;;;21.27;18.35;;;2.80;99.90;;;;;;5011797;28;20034;-76
2021/11/13 04:21:25;;;;;;;22.40;18.33;;;2.80;99.90;;;;;;5007286;28;20393;-76
2021/11/13 04:23:52;;;;;;;20.90;17.95;;;2.80;99.90;;;;;;5002255;28;20014;-75
2021/11/13 04:26:17;;;;;;;21.63;17.80;;;2.80;99.90;;;;;;4998021;28;20030;-75
2021/11/13 04:28:44;;;;;;;19.10;17.08;;;2.80;99.90;;;;;;4994110;28;20037;-74
2021/11/13 04:31:09;;;;;;;17.77;15.90;;;2.80;99.90;;;;;;4998258;28;20112;-76
2021/11/13 04:33:35;;;;;;;19.08;16.90;;;2.80;99.90;;;;;;4993553;28;20023;-76
2021/11/13 04:38:32;;;;;;;17.13;15.23;;;2.90;99.90;;;;;;4993309;28;20077;-77
2021/11/13 04:40:59;;;;;;;17.60;15.80;;;2.90;99.90;;;;;;4994293;28;20065;-77
2021/11/13 04:43:25;;;;;;;17.75;15.95;;;2.90;99.90;;;;;;4996299;28;20030;-76
2021/11/13 04:45:51;;;;;;;16.50;14.82;;;2.90;99.90;;;;;;4988944;28;20119;-77
2021/11/13 04:48:16;;;;;;;20.58;16.60;;;2.90;99.90;;;;;;4991834;28;20069;-77
2021/11/13 04:50:42;;;;;;;17.05;15.25;;;2.90;99.90;;;;;;4988443;28;20030;-76
2021/11/13 04:53:08;;;;;;;17.30;15.48;;;3.00;99.90;;;;;;4984712;28;20438;-76
2021/11/13 04:55:33;;;;;;;17.08;15.35;;;3.00;99.90;;;;;;4989935;28;20376;-77
2021/11/13 04:57:59;;;;;;;17.88;16.00;;;3.00;99.90;;;;;;4990250;28;20031;-75
2021/11/13 05:00:27;;;;;;;19.77;16.33;;;3.00;99.90;;;;;;4994885;28;20033;-77
2021/11/13 05:02:54;;;;;;;17.80;15.52;;;3.10;99.90;;;;;;4990465;28;20031;-77
2021/11/13 05:05:20;;;;;;;16.60;14.90;;;3.10;99.90;;;;;;4992150;28;20133;-76
2021/11/13 05:07:45;;;;;;;16.05;14.38;;;3.10;99.90;;;;;;4999040;28;20785;-76
2021/11/13 05:10:12;;;;;;;17.60;15.80;;;3.10;99.90;;;;;;5019510;28;20034;-75
2021/11/13 05:12:38;;;;;;;17.10;15.45;;;3.20;99.90;;;;;;4984954;28;20030;-76
2021/11/13 05:15:05;;;;;;;15.00;13.60;;;3.30;99.90;;;;;;4987935;28;20038;-76
2021/11/13 05:17:31;;;;;;;17.15;15.45;;;3.30;99.90;;;;;;4989543;28;20038;-77
2021/11/13 05:19:56;;;;;;;16.77;14.05;;;3.30;99.90;;;;;;5029012;23;20073;-80
2021/11/13 05:22:23;;;;;;;17.35;14.52;;;3.20;99.90;;;;;;5016059;28;20046;-78
2021/11/13 05:24:49;;;;;;;16.15;14.45;;;3.20;99.90;;;;;;5013996;28;20030;-79
2021/11/13 05:27:15;;;;;;;17.02;15.27;;;3.20;99.90;;;;;;5013166;28;20087;-80
2021/11/13 05:29:40;;;;;;;17.65;15.75;;;3.20;99.90;;;;;;5016026;28;20029;-79
2021/11/13 05:32:06;;;;;;;22.80;17.83;;;3.20;99.90;;;;;;5016407;28;20022;-79
2021/11/13 05:34:32;;;;;;;20.58;17.98;;;3.20;99.90;;;;;;5015923;28;20105;-78
2021/11/13 05:36:58;;;;;;;22.40;17.77;;;3.50;99.90;;;;;;5009034;28;20086;-80
2021/11/13 05:39:23;;;;;;;20.83;17.63;;;3.50;99.90;;;;;;5019529;28;20032;-78
2021/11/13 05:41:49;;;;;;;19.65;16.83;;;3.50;99.90;;;;;;5018287;28;20413;-79
2021/11/13 05:44:14;;;;;;;19.23;17.17;;;3.40;99.90;;;;;;5030063;28;20014;-78
2021/11/13 05:46:40;;;;;;;25.77;17.40;;;3.30;99.90;;;;;;5032830;28;20037;-80
2021/11/13 05:49:06;;;;;;;19.98;17.20;;;3.30;99.90;;;;;;5027861;28;20037;-79
2021/11/13 05:51:31;;;;;;;20.38;18.00;;;3.30;99.90;;;;;;5034126;28;20060;-79
2021/11/13 05:53:57;;;;;;;20.08;17.40;;;3.40;99.90;;;;;;5033405;28;20030;-78
2021/11/13 05:56:23;;;;;;;25.08;18.08;;;3.40;99.90;;;;;;5034456;28;20081;-79
2021/11/13 05:58:49;;;;;;;19.70;17.70;;;3.30;99.90;;;;;;5029947;28;20041;-78
2021/11/13 06:01:15;;;;;;;20.00;17.48;;;3.30;99.90;;;;;;5030240;28;20452;-79
2021/11/13 06:03:40;;;;;;;19.63;17.63;;;3.50;99.90;;;;;;5015101;28;20053;-80
2021/11/13 06:06:06;;;;;;;17.77;15.95;;;3.60;99.90;;;;;;5018024;28;20053;-79
2021/11/13 06:08:32;;;;;;;17.05;15.35;;;3.50;99.90;;;;;;5011251;28;20029;-80
2021/11/13 06:10:57;;;;;;;17.42;15.65;;;3.60;99.90;;;;;;5014058;28;20041;-79
2021/11/13 06:13:23;;;;;;;19.95;17.50;;;3.60;99.90;;;;;;5008055;28;20445;-80
2021/11/13 06:15:48;;;;;;;17.05;15.25;;;3.60;99.90;;;;;;5018392;28;20099;-80
2021/11/13 06:18:14;;;;;;;18.17;16.25;;;3.60;99.90;;;;;;5015533;28;20030;-79
2021/11/13 06:20:39;;;;;;;18.52;16.63;;;3.70;99.90;;;;;;5017986;28;20029;-79
2021/11/13 06:23:05;;;;;;;17.75;15.85;;;3.70;99.90;;;;;;5020887;28;20489;-80
2021/11/13 06:25:31;;;;;;;18.45;16.02;;;3.70;99.90;;;;;;5020009;28;20022;-79
2021/11/13 06:27:57;;;;;;;16.60;14.68;;;3.70;99.90;;;;;;5019212;28;20030;-80
2021/11/13 06:30:22;;;;;;;18.92;15.98;;;3.70;99.90;;;;;;5014301;28;20113;-79
2021/11/13 06:32:51;;;;;;;18.25;16.35;;;3.70;99.90;;;;;;5009997;28;20030;-80
2021/11/13 06:35:17;;;;;;;18.17;15.88;;;3.70;99.90;;;;;;5018449;28;20343;-80
2021/11/13 06:37:44;;;;;;;18.73;16.33;;;3.80;99.90;;;;;;5023602;28;20022;-80
2021/11/13 06:40:11;;;;;;;20.63;17.50;;;3.80;99.90;;;;;;5024623;28;20070;-80
2021/11/13 06:42:37;;;;;;;16.95;15.13;;;3.80;99.90;;;;;;5020380;28;20032;-78
2021/11/13 06:45:08;;;;;;;21.73;16.65;;;3.80;99.90;;;;;;5035467;28;20079;-79
2021/11/13 06:47:34;;;;;;;17.85;16.15;;;3.70;99.90;;;;;;5019967;28;20041;-79
2021/11/13 06:50:00;;;;;;;19.20;15.82;;;3.70;99.90;;;;;;5022791;28;20128;-79
2021/11/13 06:52:26;;;;;;;17.10;15.40;;;3.70;99.90;;;;;;5019174;28;20108;-80
2021/11/13 06:54:51;;;;;;;19.15;16.58;;;3.80;99.90;;;;;;5023188;28;20048;-81
2021/11/13 06:57:17;;;;;;;17.00;15.30;;;3.90;99.90;;;;;;5025607;28;20382;-79
2021/11/13 06:59:42;;;;;;;17.20;15.32;;;3.90;99.90;;;;;;5015304;28;20081;-79
2021/11/13 07:02:09;;;;;;;21.00;15.93;;;4.10;99.90;;;;;;5019380;28;20082;-80
2021/11/13 07:04:36;;;;;;;19.08;16.92;;;4.00;99.90;;;;;;5039327;28;20014;-80
2021/11/13 07:07:02;;;;;;;17.20;15.10;;;3.90;99.90;;;;;;5024793;28;20121;-81
2021/11/13 07:09:27;;;;;;;16.20;14.50;;;4.00;99.90;;;;;;5014560;28;20049;-80
2021/11/13 07:11:53;;;;;;;17.98;16.13;;;4.10;99.90;;;;;;5023359;28;20142;-79
2021/11/13 07:14:18;;;;;;;17.80;15.90;;;4.10;99.90;;;;;;5017623;28;20034;-79
2021/11/13 07:16:44;;;;;;;17.45;15.02;;;4.10;99.90;;;;;;5020827;28;20098;-79
2021/11/13 07:19:10;;;;;;;18.33;15.85;;;4.10;99.90;;;;;;5024555;28;20077;-79
2021/11/13 07:21:38;;;;;;;16.65;14.95;;;4.10;99.90;;;;;;5025661;28;20069;-79
2021/11/13 07:24:04;;;;;;;16.52;14.00;;;4.20;99.90;;;;;;5023130;28;20052;-79
2021/11/13 07:26:29;;;;;;;15.52;13.93;;;4.20;99.90;;;;;;5021611;28;20014;-80
2021/11/13 07:29:01;;;;;;;15.48;13.82;;;4.20;99.90;;;;;;5020490;28;20030;-78
2021/11/13 07:31:27;;;;;;;15.45;13.93;;;4.20;99.90;;;;;;5013573;28;20033;-79
2021/11/13 07:33:54;;;;;;;16.15;14.45;;;4.30;99.90;;;;;;5019650;28;20026;-81
2021/11/13 07:36:20;;;;;;;17.08;15.25;;;4.20;99.90;;;;;;5038826;28;20044;-80
2021/11/13 07:38:45;;;;;;;15.85;14.07;;;4.30;99.90;;;;;;5023585;28;20053;-80
2021/11/13 07:41:11;;;;;;;16.55;14.57;;;4.40;99.90;;;;;;5023355;28;20026;-80
2021/11/13 07:43:37;;;;;;;18.30;14.88;;;4.70;99.90;;;;;;5014349;28;20029;-80
2021/11/13 07:46:03;;;;;;;17.35;14.15;;;4.80;99.90;;;;;;5020609;28;20097;-79
2021/11/13 07:48:29;;;;;;;16.35;14.73;;;4.70;99.90;;;;;;5019571;28;20034;-79
2021/11/13 07:50:54;;;;;;;15.70;14.10;;;4.70;99.90;;;;;;5018840;28;20096;-78
2021/11/13 07:53:20;;;;;;;15.00;13.20;;;4.80;99.90;;;;;;5019881;28;20025;-79
2021/11/13 07:55:46;;;;;;;15.75;14.05;;;4.80;99.90;;;;;;5018285;28;20026;-80
2021/11/13 07:58:15;;;;;;;16.20;14.55;;;4.90;99.90;;;;;;5025622;28;20033;-79
2021/11/13 08:00:45;;;;;;;15.27;13.73;;;5.10;99.90;;;;;;5023628;28;20022;-80
2021/11/13 08:03:11;;;;;;;16.33;14.73;;;5.20;99.90;;;;;;5018793;28;20022;-80
2021/11/13 08:05:36;;;;;;;18.35;15.32;;;5.20;99.90;;;;;;5032503;28;20462;-80
2021/11/13 08:08:02;;;;;;;16.02;14.43;;;5.20;99.90;;;;;;5013879;28;20034;-82
2021/11/13 08:10:28;;;;;;;16.77;14.80;;;5.20;99.90;;;;;;5019564;28;20022;-80
2021/11/13 08:12:54;;;;;;;21.88;15.70;;;5.00;99.90;;;;;;5019530;28;20064;-79
2021/11/13 08:15:20;;;;;;;15.95;14.25;;;5.10;99.90;;;;;;5012615;28;20030;-80
2021/11/13 08:17:46;;;;;;;15.60;14.00;;;5.40;99.90;;;;;;5012968;28;20025;-76
2021/11/13 08:20:13;;;;;;;15.82;14.15;;;5.60;99.90;;;;;;5024045;28;20045;-78
2021/11/13 08:22:41;;;;;;;17.05;14.32;;;5.70;99.90;;;;;;5017188;28;20114;-76
2021/11/13 08:25:09;;;;;;;15.13;13.60;;;5.60;99.90;;;;;;5017769;28;20026;-79
2021/11/13 08:27:35;;;;;;;16.33;14.73;;;5.40;99.90;;;;;;5014720;28;20086;-78
2021/11/13 08:30:02;;;;;;;16.17;14.48;;;5.50;99.90;;;;;;5016585;28;20026;-79
2021/11/13 08:32:28;;;;;;;16.42;14.80;;;5.70;99.90;;;;;;5016120;28;20068;-78
2021/11/13 08:34:54;;;;;;;15.30;13.77;;;5.70;99.90;;;;;;5017021;28;20021;-78
2021/11/13 08:37:19;;;;;;;16.27;14.68;;;5.90;99.90;;;;;;5013317;28;20036;-78
2021/11/13 08:39:45;;;;;;;16.35;14.63;;;5.80;99.90;;;;;;5010522;28;20033;-77
2021/11/13 08:42:14;;;;;;;17.73;14.65;;;6.00;99.90;;;;;;5015077;28;20129;-79
2021/11/13 08:44:44;;;;;;;15.45;13.95;;;5.80;99.90;;;;;;5015976;28;20105;-77
2021/11/13 08:47:11;;;;;;;15.88;13.98;;;5.70;99.90;;;;;;5020947;28;20022;-79
2021/11/13 08:49:39;;;;;;;16.08;13.60;;;5.90;99.90;;;;;;5015805;28;20108;-81
2021/11/13 08:52:05;;;;;;;15.85;14.32;;;6.00;99.90;;;;;;5009971;28;20089;-78
2021/11/13 08:54:32;;;;;;;14.80;13.30;;;6.00;99.90;;;;;;5013565;28;20022;-78
2021/11/13 08:56:58;;;;;;;15.43;13.70;;;6.10;99.90;;;;;;5023290;28;20259;-78
2021/11/13 08:59:23;;;;;;;14.23;12.93;;;6.10;99.90;;;;;;5015883;28;20048;-78
2021/11/13 09:01:50;;;;;;;14.23;12.82;;;6.10;99.90;;;;;;5020504;28;20028;-77
2021/11/13 09:04:16;;;;;;;14.05;12.77;;;6.20;99.90;;;;;;5032062;28;20026;-76
2021/11/13 09:06:42;;;;;;;17.25;14.02;;;6.00;99.90;;;;;;5027385;28;20030;-78
2021/11/13 09:09:08;;;;;;;15.73;14.13;;;6.00;99.90;;;;;;5033504;28;20348;-76
2021/11/13 09:11:37;;;;;;;15.18;13.43;;;6.10;99.90;;;;;;5031512;28;20462;-78
2021/11/13 09:14:05;;;;;;;17.55;15.15;;;6.20;99.90;;;;;;5028681;28;20064;-78
2021/11/13 09:16:31;;;;;;;16.50;14.85;;;6.20;99.90;;;;;;5024018;28;20136;-78
2021/11/13 09:18:56;;;;;;;17.13;13.98;;;6.30;99.90;;;;;;5021827;28;20412;-78
2021/11/13 09:21:22;;;;;;;16.08;14.38;;;6.40;99.90;;;;;;5020743;28;20026;-78
2021/11/13 09:23:48;;;;;;;20.50;15.40;;;6.60;99.90;;;;;;5019075;28;20107;-77
2021/11/13 09:26:14;;;;;;;16.58;14.90;;;6.60;99.90;;;;;;5016946;28;20552;-77
2021/11/13 09:28:40;;;;;;;14.98;13.20;;;6.70;99.90;;;;;;5016317;28;20030;-78
2021/11/13 09:31:07;;;;;;;14.65;13.32;;;6.80;99.90;;;;;;5012152;28;20050;-77
2021/11/13 09:33:33;;;;;;;14.02;12.65;;;6.70;99.90;;;;;;5019079;28;20075;-78
2021/11/13 09:35:59;;;;;;;17.15;13.40;;;6.90;99.90;;;;;;5015472;28;20033;-76
2021/11/13 09:38:28;;;;;;;14.27;12.77;;;7.20;99.90;;;;;;5015400;28;20029;-76
2021/11/13 09:40:56;;;;;;;14.88;12.73;;;7.10;99.90;;;;;;5015777;28;20397;-78
2021/11/13 09:43:23;;;;;;;15.43;13.65;;;7.30;99.90;;;;;;5015393;28;20462;-77
2021/11/13 09:45:50;;;;;;;14.77;13.27;;;7.40;99.90;;;;;;5015049;28;20120;-78
2021/11/13 09:48:17;;;;;;;14.75;13.20;;;7.60;99.90;;;;;;5014878;28;20097;-78
2021/11/13 09:50:46;;;;;;;13.82;12.50;;;7.70;99.90;;;;;;5020028;28;20515;-77
2021/11/13 09:53:12;;;;;;;15.98;13.55;;;7.90;99.90;;;;;;5037934;28;20030;-77
2021/11/13 09:55:39;;;;;;;13.75;12.38;;;8.10;99.90;;;;;;5032206;28;20030;-77
2021/11/13 09:58:05;;;;;;;14.30;13.00;;;8.20;99.90;;;;;;5020133;28;20038;-79
2021/11/13 10:00:36;;;;;;;14.25;12.82;;;8.00;99.90;;;;;;5016928;28;20204;-78
2021/11/13 10:03:03;;;;;;;14.88;13.48;;;8.20;99.90;;;;;;5018522;28;20113;-78
2021/11/13 10:05:30;;;;;;;14.18;12.68;;;8.40;99.90;;;;;;5019188;28;20421;-77
2021/11/13 10:07:56;;;;;;;13.88;12.57;;;8.40;99.90;;;;;;5018415;28;20088;-77
2021/11/13 10:10:37;;;;;;;15.38;13.95;;;8.30;99.90;;;;;;5020346;28;20055;-78
2021/11/13 10:13:03;;;;;;;;;;;8.10;99.90;;;;;;5024791;28;20026;-77
2021/11/13 10:15:34;;;;;;;14.32;12.68;;;8.00;99.90;;;;;;5024485;28;19905;-78
2021/11/13 10:18:09;;;;;;;14.07;12.57;;;8.00;99.90;;;;;;5026152;28;20509;-76
2021/11/13 10:20:37;;;;;;;13.98;12.68;;;8.00;99.90;;;;;;5023430;28;20087;-78
2021/11/13 10:23:03;;;;;;;19.38;13.50;;;7.90;99.90;;;;;;5021460;28;20052;-76
2021/11/13 10:25:28;;;;;;;15.40;13.80;;;7.80;99.90;;;;;;5019957;28;20058;-78
2021/11/13 10:28:16;;;;;;;15.15;13.57;;;7.80;99.90;;;;;;5021151;28;20036;-77
2021/11/13 10:30:42;;;;;;;15.57;13.95;;;7.80;99.90;;;;;;5018108;28;20033;-79
2021/11/13 10:33:08;;;;;;;19.90;16.92;;;7.80;99.90;;;;;;5018955;28;20036;-78
2021/11/13 10:35:58;;;;;;;15.07;13.52;;;7.80;99.90;;;;;;5020020;28;20064;-78
2021/11/13 10:38:24;;;;;;;15.40;13.80;;;7.60;99.90;;;;;;5018402;28;20030;-77
2021/11/13 10:40:54;;;;;;;15.45;13.70;;;7.60;99.90;;;;;;5020499;28;20445;-78
2021/11/13 10:43:31;;;;;;;15.25;13.75;;;7.70;99.90;;;;;;5018097;28;20485;-78
2021/11/13 10:46:09;;;;;;;16.83;15.10;;;7.50;99.90;;;;;;5018844;28;20025;-78
2021/11/13 10:48:38;;;;;;;15.20;13.70;;;7.50;99.90;;;;;;5020056;28;20105;-78
2021/11/13 10:51:06;;;;;;;14.63;13.23;;;7.50;99.90;;;;;;5027705;28;20022;-76
2021/11/13 10:53:33;;;;;;;17.70;14.20;;;7.60;99.90;;;;;;5032297;28;20030;-78
2021/11/13 10:56:11;;;;;;;14.25;12.80;;;7.70;99.90;;;;;;5018524;28;20026;-77
2021/11/13 10:58:53;;;;;;;16.58;14.55;;;7.90;99.90;;;;;;5020008;28;20217;-79
2021/11/13 11:01:46;;;;;;;15.75;13.50;;;7.90;99.90;;;;;;5018864;28;20504;-79
2021/11/13 11:04:16;;;;;;;16.08;13.55;;;8.00;99.90;;;;;;5019847;28;20033;-79
2021/11/13 11:06:47;;;;;;;17.77;15.93;;;8.00;99.90;;;;;;5006364;28;20038;-78
2021/11/13 11:09:15;;;;;;;18.20;16.30;;;7.80;99.90;;;;;;5019209;28;20029;-79
2021/11/13 11:11:41;;;;;;;18.02;15.30;;;7.90;99.90;;;;;;5018662;28;20026;-79
2021/11/13 11:14:09;;;;;;;17.38;15.65;;;8.00;99.90;;;;;;5020257;28;20036;-77
2021/11/13 11:16:41;;;;;;;16.65;14.98;;;7.90;99.90;;;;;;5020309;28;20033;-78
2021/11/13 11:19:09;;;;;;;16.05;14.40;;;8.00;99.90;;;;;;5019295;28;20022;-75
2021/11/13 11:21:54;;;;;;;16.52;14.52;;;8.00;99.90;;;;;;5032315;23;20102;-79
2021/11/13 11:24:26;;;;;;;15.55;13.98;;;8.00;99.90;;;;;;5009574;28;21409;-79
2021/11/13 11:27:05;;;;;;;16.77;14.82;;;8.10;99.90;;;;;;5005178;28;20026;-78
2021/11/13 11:29:36;;;;;;;16.00;14.40;;;8.10;99.90;;;;;;5013013;28;20038;-81
2021/11/13 11:32:07;;;;;;;16.05;14.40;;;8.10;99.90;;;;;;5030236;28;20053;-79
2021/11/13 11:34:35;;;;;;;16.15;14.52;;;8.20;99.90;;;;;;5015153;28;20069;-79
2021/11/13 11:37:06;;;;;;;16.60;14.75;;;8.20;99.90;;;;;;5013538;28;20033;-80
2021/11/13 11:39:33;;;;;;;16.27;14.68;;;8.20;99.90;;;;;;5016116;28;20065;-81
2021/11/13 11:41:59;;;;;;;15.45;13.90;;;8.20;99.90;;;;;;5015459;28;20054;-80
2021/11/13 11:44:24;;;;;;;17.67;15.88;;;8.20;99.90;;;;;;5017287;28;20027;-81
2021/11/13 11:46:51;;;;;;;16.95;15.32;;;8.00;99.90;;;;;;5031328;28;20034;-79
2021/11/13 11:49:17;;;;;;;15.98;14.30;;;8.00;99.90;;;;;;5018396;28;20038;-81
2021/11/13 11:51:44;;;;;;;16.48;14.77;;;8.00;99.90;;;;;;5017832;28;20037;-81
2021/11/13 11:54:10;;;;;;;16.83;14.73;;;8.10;99.90;;;;;;5014321;28;20026;-81
2021/11/13 11:56:36;;;;;;;17.08;15.38;;;8.10;99.90;;;;;;5008075;28;20137;-81
2021/11/13 11:59:05;;;;;;;16.58;14.98;;;8.10;99.90;;;;;;5005660;28;20070;-80
2021/11/13 12:01:35;;;;;;;17.88;16.10;;;7.90;99.90;;;;;;5024081;28;20045;-80
2021/11/13 12:04:15;;;;;;;16.75;14.80;;;7.90;99.90;;;;;;5006205;28;20030;-79
2021/11/13 12:06:44;;;;;;;17.60;15.13;;;7.90;99.90;;;;;;5023907;28;20085;-81
2021/11/13 12:09:11;;;;;;;16.08;14.05;;;7.90;99.90;;;;;;5016932;28;20022;-79
2021/11/13 12:11:37;;;;;;;16.80;14.15;;;8.10;99.90;;;;;;5015876;28;20026;-81
2021/11/13 12:14:29;;;;;;;16.77;14.93;;;8.20;99.90;;;;;;5017466;28;20134;-82
2021/11/13 12:17:33;;;;;;;17.98;15.23;;;8.20;99.90;;;;;;5016942;28;20118;-80
2021/11/13 12:20:05;;;;;;;15.90;14.27;;;8.40;99.90;;;;;;5024884;28;20021;-79
2021/11/13 12:22:43;;;;;;;16.75;14.60;;;8.40;99.90;;;;;;5024373;28;20034;-78
2021/11/13 12:25:12;;;;;;;15.10;13.65;;;8.50;99.90;;;;;;5018869;28;20006;-79
2021/11/13 12:27:39;;;;;;;19.13;14.07;;;8.50;99.90;;;;;;5018054;28;20030;-80
2021/11/13 12:30:06;;;;;;;17.38;13.85;;;8.60;99.90;;;;;;5016818;28;20040;-81
2021/11/13 12:32:37;;;;;;;16.23;14.05;;;8.60;99.90;;;;;;5022001;28;20050;-81
2021/11/13 12:35:06;;;;;;;17.65;14.38;;;8.70;99.90;;;;;;5011342;28;20038;-80
2021/11/13 12:37:33;;;;;;;15.77;14.13;;;8.70;99.90;;;;;;5004727;28;20025;-81
2021/11/13 12:39:59;;;;;;;15.98;13.75;;;8.90;99.90;;;;;;5015780;28;20034;-79
2021/11/13 12:42:27;;;;;;;15.60;14.07;;;8.90;99.90;;;;;;5022097;28;20038;-79